Time;durP1;ratioP1;P1;durP2;ratioP2;P2;SDS_P1;SDS_P2;PMS_P1;PMS_P2;Temp;Humidity;BMP_temperature;BMP_pressure;BME280_temperature;BME280_humidity;BME280_pressure;Samples;Min_cycle;Max_cycle;Signal;HPM_P1;HPM_P2
2023/03/27 00:02:19;;;;;;;8.27;2.67;;;7.20;99.90;;;;;;5011460;28;20033;-50
2023/03/27 00:04:44;;;;;;;17.02;3.85;;;7.20;99.90;;;;;;5012202;28;20048;-47
2023/03/27 00:07:11;;;;;;;11.27;2.72;;;6.90;99.90;;;;;;5012234;28;20105;-49
2023/03/27 00:09:37;;;;;;;5.80;2.10;;;6.80;99.90;;;;;;5010226;28;20033;-48
2023/03/27 00:12:04;;;;;;;5.65;2.47;;;6.90;99.90;;;;;;5011969;28;20054;-59
2023/03/27 00:14:30;;;;;;;6.65;2.15;;;6.80;99.90;;;;;;5010037;28;20176;-49
2023/03/27 00:16:58;;;;;;;14.60;3.03;;;6.80;99.90;;;;;;5011616;28;20109;-50
2023/03/27 00:19:24;;;;;;;8.57;3.10;;;6.80;99.90;;;;;;5011910;28;20026;-55
2023/03/27 00:21:50;;;;;;;8.95;3.58;;;6.90;99.90;;;;;;4974745;28;20636;-48
2023/03/27 00:24:17;;;;;;;7.03;2.53;;;6.90;99.90;;;;;;4975385;28;20046;-49
2023/03/27 00:26:43;;;;;;;6.10;2.97;;;6.90;99.90;;;;;;4992041;28;20023;-47
2023/03/27 00:29:09;;;;;;;12.20;4.35;;;6.70;99.90;;;;;;4992958;28;20049;-49
2023/03/27 00:31:34;;;;;;;10.82;2.90;;;6.80;99.90;;;;;;4974663;28;20029;-49
2023/03/27 00:34:00;;;;;;;14.35;3.40;;;6.70;99.90;;;;;;4993630;28;20100;-47
2023/03/27 00:36:26;;;;;;;10.52;2.95;;;6.70;99.90;;;;;;4993861;28;20027;-47
2023/03/27 00:38:52;;;;;;;12.75;4.82;;;6.60;99.90;;;;;;4976345;28;20032;-47
2023/03/27 00:41:18;;;;;;;28.10;5.68;;;6.60;99.90;;;;;;4976053;28;20057;-48
2023/03/27 00:43:44;;;;;;;16.65;3.60;;;6.60;99.90;;;;;;4993822;28;20038;-44
2023/03/27 00:46:55;;;;;;;12.00;2.60;;;6.70;99.90;;;;;;4993637;28;20164;-47
2023/03/27 00:49:22;;;;;;;10.73;2.70;;;6.70;99.90;;;;;;4981468;28;20557;-49
2023/03/27 00:51:48;;;;;;;8.93;2.50;;;6.70;99.90;;;;;;4993515;28;20036;-48
2023/03/27 00:54:20;;;;;;;12.13;3.10;;;6.60;99.90;;;;;;4993535;28;20037;-47
2023/03/27 00:56:48;;;;;;;8.35;2.97;;;6.70;99.90;;;;;;4993433;28;20038;-47
2023/03/27 00:59:18;;;;;;;8.68;2.97;;;6.70;99.90;;;;;;4993352;28;20022;-48
2023/03/27 01:01:44;;;;;;;6.40;2.45;;;6.60;99.90;;;;;;4993151;28;20022;-50
2023/03/27 01:04:10;;;;;;;20.70;3.05;;;6.50;99.90;;;;;;4993369;28;20490;-46
2023/03/27 01:06:37;;;;;;;20.88;3.42;;;6.50;99.90;;;;;;4993123;28;20115;-45
2023/03/27 01:09:03;;;;;;;8.40;2.20;;;6.40;99.90;;;;;;4993178;28;20406;-48
2023/03/27 01:11:58;;;;;;;14.15;2.83;;;6.30;99.90;;;;;;4993202;28;20137;-49
2023/03/27 01:14:42;;;;;;;12.30;2.67;;;6.30;99.90;;;;;;4992505;28;20046;-47
2023/03/27 01:17:23;;;;;;;10.27;2.47;;;6.20;99.90;;;;;;4976009;28;20475;-47
2023/03/27 01:20:26;;;;;;;14.32;3.95;;;6.10;99.90;;;;;;4993494;28;20023;-48
2023/03/27 01:23:17;;;;;;;10.13;2.60;;;6.10;99.90;;;;;;4975789;28;20038;-49
2023/03/27 01:26:06;;;;;;;9.75;2.25;;;6.10;99.90;;;;;;4992914;28;20027;-49
2023/03/27 01:28:56;;;;;;;9.15;2.85;;;6.00;99.90;;;;;;4992853;28;20077;-45
2023/03/27 01:31:42;;;;;;;12.02;3.58;;;5.90;99.90;;;;;;4992625;28;20036;-47
2023/03/27 01:34:35;;;;;;;12.50;3.17;;;5.80;99.90;;;;;;4992217;28;20482;-47
2023/03/27 01:37:20;;;;;;;14.48;4.32;;;5.60;99.90;;;;;;4992736;28;20659;-47
2023/03/27 01:40:07;;;;;;;11.98;4.60;;;5.50;99.90;;;;;;4992725;28;20015;-47
2023/03/27 01:42:45;;;;;;;12.20;3.30;;;5.50;99.90;;;;;;4992402;28;20482;-47
2023/03/27 01:45:16;;;;;;;23.08;3.38;;;5.50;99.90;;;;;;4992548;28;20069;-49
2023/03/27 01:48:13;;;;;;;5.72;2.20;;;5.40;99.90;;;;;;4992590;28;20490;-47
2023/03/27 01:50:47;;;;;;;10.98;2.40;;;5.30;99.90;;;;;;4984141;28;20439;-47
2023/03/27 01:53:31;;;;;;;13.38;3.50;;;5.30;99.90;;;;;;4992249;28;20026;-49
2023/03/27 01:56:07;;;;;;;10.73;3.10;;;5.30;99.90;;;;;;4992286;28;20021;-47
2023/03/27 01:58:45;;;;;;;10.85;2.25;;;5.20;99.90;;;;;;4992267;28;20601;-47
2023/03/27 02:01:24;;;;;;;15.63;2.58;;;5.10;99.90;;;;;;4992116;28;20030;-49
2023/03/27 02:03:55;;;;;;;12.10;2.85;;;5.10;99.90;;;;;;4992265;28;20061;-47
2023/03/27 02:06:27;;;;;;;16.00;2.70;;;5.00;99.90;;;;;;4991996;28;20026;-47
2023/03/27 02:09:10;;;;;;;18.95;4.43;;;5.00;99.90;;;;;;4991949;28;20037;-51
2023/03/27 02:11:43;;;;;;;16.17;4.03;;;5.00;99.90;;;;;;4991979;28;20030;-45
2023/03/27 02:14:23;;;;;;;10.63;3.67;;;4.90;99.90;;;;;;4992059;28;20053;-45
2023/03/27 02:16:54;;;;;;;11.07;2.20;;;4.90;99.90;;;;;;4991985;28;20030;-46
2023/03/27 02:19:36;;;;;;;9.30;2.35;;;4.90;99.90;;;;;;4992054;28;20037;-45
2023/03/27 02:22:02;;;;;;;11.10;2.50;;;4.80;99.90;;;;;;4992221;28;20038;-45
2023/03/27 02:24:28;;;;;;;13.88;4.07;;;4.80;99.90;;;;;;4993064;28;20058;-45
2023/03/27 02:27:03;;;;;;;8.82;1.75;;;4.70;99.90;;;;;;4996177;28;20022;-45
2023/03/27 02:29:41;;;;;;;10.48;2.90;;;4.80;99.90;;;;;;4996446;28;20030;-49
2023/03/27 02:32:17;;;;;;;9.13;2.67;;;4.70;99.90;;;;;;4978524;28;20030;-45
2023/03/27 02:34:55;;;;;;;7.47;2.28;;;4.60;99.90;;;;;;4996469;28;20324;-45
2023/03/27 02:37:36;;;;;;;9.77;3.05;;;4.60;99.90;;;;;;4996271;28;20046;-45
2023/03/27 02:40:15;;;;;;;14.77;3.05;;;4.50;99.90;;;;;;4996059;28;20023;-49
2023/03/27 02:42:51;;;;;;;7.35;1.90;;;4.50;99.90;;;;;;4995832;28;20049;-45
2023/03/27 02:45:28;;;;;;;10.10;2.00;;;4.50;99.90;;;;;;4995727;28;20037;-46
2023/03/27 02:48:01;;;;;;;12.15;2.30;;;4.40;99.90;;;;;;4978125;28;20130;-45
2023/03/27 02:50:35;;;;;;;10.65;2.58;;;4.40;99.90;;;;;;4978488;28;20521;-47
2023/03/27 02:53:03;;;;;;;12.50;2.10;;;4.40;99.90;;;;;;4995553;28;20065;-47
2023/03/27 02:55:51;;;;;;;9.10;2.40;;;4.40;99.90;;;;;;4995523;28;20026;-49
2023/03/27 02:58:23;;;;;;;4.93;1.70;;;;;;;;;;4995506;28;20026;-47
2023/03/27 03:00:50;;;;;;;12.65;2.92;;;4.20;99.90;;;;;;4995239;28;20066;-46
2023/03/27 03:03:19;;;;;;;14.73;2.30;;;4.20;99.90;;;;;;4995392;28;20084;-47
2023/03/27 03:05:45;;;;;;;8.55;2.58;;;4.20;99.90;;;;;;4995298;28;20061;-50
2023/03/27 03:08:13;;;;;;;10.27;1.75;;;4.20;99.90;;;;;;4995187;28;20038;-47
2023/03/27 03:10:44;;;;;;;12.95;2.63;;;4.30;99.90;;;;;;4995268;28;20160;-51
2023/03/27 03:13:09;;;;;;;7.72;1.88;;;4.30;99.90;;;;;;4995324;28;20037;-50
2023/03/27 03:15:35;;;;;;;13.70;4.75;;;4.20;99.90;;;;;;4977991;28;20026;-49
2023/03/27 03:18:01;;;;;;;7.18;2.17;;;4.30;99.90;;;;;;4995016;28;20018;-46
2023/03/27 03:20:28;;;;;;;14.80;3.38;;;4.20;99.90;;;;;;4995236;28;20101;-47
2023/03/27 03:22:55;;;;;;;7.82;2.85;;;4.20;99.90;;;;;;5028769;23;20068;-55
2023/03/27 03:25:20;;;;;;;8.05;1.77;;;4.20;99.90;;;;;;5013696;28;20029;-55
2023/03/27 03:27:46;;;;;;;10.75;3.10;;;4.20;99.90;;;;;;5014556;28;20026;-56
2023/03/27 03:30:12;;;;;;;13.20;2.38;;;4.20;99.90;;;;;;5014561;28;20018;-58
2023/03/27 03:32:38;;;;;;;12.95;1.98;;;4.10;99.90;;;;;;5014376;28;20057;-58
2023/03/27 03:35:04;;;;;;;9.82;2.80;;;4.10;99.90;;;;;;5014673;28;20500;-55
2023/03/27 03:37:37;;;;;;;9.27;2.28;;;4.00;99.90;;;;;;5013599;28;20445;-52
2023/03/27 03:40:10;;;;;;;10.90;2.45;;;4.10;99.90;;;;;;5014914;28;20024;-50
2023/03/27 03:42:46;;;;;;;17.45;2.25;;;4.10;99.90;;;;;;5014645;28;20095;-54
2023/03/27 03:45:11;;;;;;;;;;;4.10;99.90;;;;;;4997216;28;20026;-50
2023/03/27 03:47:37;;;;;;;;;;;4.00;99.90;;;;;;5014615;28;20013;-49
2023/03/27 03:50:03;;;;;;;6.27;2.80;;;3.80;99.90;;;;;;5014186;28;20289;-50
2023/03/27 03:52:28;;;;;;;14.57;2.20;;;3.80;99.90;;;;;;4996150;28;20493;-54
2023/03/27 03:54:54;;;;;;;14.23;2.60;;;3.70;99.90;;;;;;5013783;28;20022;-51
2023/03/27 03:57:19;;;;;;;15.52;1.90;;;3.70;99.90;;;;;;5013883;28;20014;-51
2023/03/27 03:59:46;;;;;;;9.60;2.25;;;3.80;99.90;;;;;;5013885;28;20481;-51
2023/03/27 04:02:16;;;;;;;10.57;2.65;;;3.80;99.90;;;;;;5013930;28;20045;-54
2023/03/27 04:04:42;;;;;;;8.40;2.08;;;3.80;99.90;;;;;;5014251;28;20034;-51
2023/03/27 04:07:08;;;;;;;10.15;2.70;;;3.80;99.90;;;;;;5013848;28;20032;-55
2023/03/27 04:09:34;;;;;;;5.18;1.90;;;3.90;99.90;;;;;;5013821;28;20038;-51
2023/03/27 04:11:59;;;;;;;16.90;2.80;;;3.80;99.90;;;;;;5013656;28;20025;-53
2023/03/27 04:14:25;;;;;;;10.68;2.30;;;3.80;99.90;;;;;;4996127;28;20026;-54
2023/03/27 04:16:50;;;;;;;10.50;2.28;;;3.70;99.90;;;;;;5013568;28;20030;-58
2023/03/27 04:19:17;;;;;;;17.00;2.25;;;3.80;99.90;;;;;;5013623;28;20022;-57
2023/03/27 04:21:42;;;;;;;8.23;1.52;;;3.80;99.90;;;;;;5013395;28;20025;-55
2023/03/27 04:24:08;;;;;;;14.07;2.40;;;3.80;99.90;;;;;;5013241;28;20478;-57
2023/03/27 04:26:34;;;;;;;15.68;3.55;;;3.80;99.90;;;;;;4995715;28;20028;-54
2023/03/27 04:29:00;;;;;;;11.02;1.85;;;3.90;99.90;;;;;;5013213;28;20033;-52
2023/03/27 04:31:25;;;;;;;12.82;1.88;;;3.90;99.90;;;;;;5013241;28;20129;-57
2023/03/27 04:33:51;;;;;;;6.60;1.67;;;4.00;99.90;;;;;;5013314;28;20037;-55
2023/03/27 04:36:17;;;;;;;7.85;1.63;;;4.00;99.90;;;;;;5013287;28;20049;-57
2023/03/27 04:38:44;;;;;;;16.17;3.63;;;3.90;99.90;;;;;;5013229;28;20022;-57
2023/03/27 04:41:09;;;;;;;6.85;2.03;;;3.90;99.90;;;;;;5013223;28;20022;-54
2023/03/27 04:43:38;;;;;;;6.32;2.20;;;3.80;99.90;;;;;;5013075;28;20109;-56
2023/03/27 04:46:07;;;;;;;8.70;2.75;;;3.80;99.90;;;;;;5013131;28;20025;-57
2023/03/27 04:48:36;;;;;;;6.63;1.40;;;4.00;99.90;;;;;;5012134;28;20034;-57
2023/03/27 04:51:03;;;;;;;14.40;1.80;;;3.80;99.90;;;;;;5012965;28;20113;-55
2023/03/27 04:53:30;;;;;;;5.63;2.22;;;3.70;99.90;;;;;;5012806;28;20026;-56
2023/03/27 04:55:56;;;;;;;15.50;1.92;;;3.80;99.90;;;;;;5012998;28;20054;-55
2023/03/27 04:58:25;;;;;;;6.57;1.88;;;3.80;99.90;;;;;;5012766;28;20414;-54
2023/03/27 05:00:54;;;;;;;9.00;2.00;;;3.90;99.90;;;;;;5012812;28;20036;-55
2023/03/27 05:03:22;;;;;;;10.07;2.10;;;3.80;99.90;;;;;;5012773;28;20076;-57
2023/03/27 05:05:49;;;;;;;9.20;2.38;;;3.80;99.90;;;;;;5013004;28;20049;-54
2023/03/27 05:08:15;;;;;;;14.43;2.03;;;3.90;99.90;;;;;;5012847;28;20482;-56
2023/03/27 05:10:41;;;;;;;8.15;2.50;;;3.80;99.90;;;;;;5012638;28;20033;-56
2023/03/27 05:13:07;;;;;;;14.30;2.42;;;3.70;99.90;;;;;;5012471;28;20350;-55
2023/03/27 05:15:32;;;;;;;12.57;3.97;;;3.80;99.90;;;;;;5012793;28;20026;-56
2023/03/27 05:17:59;;;;;;;13.27;2.15;;;3.80;99.90;;;;;;5012632;28;20022;-57
2023/03/27 05:20:25;;;;;;;5.20;1.90;;;3.80;99.90;;;;;;5012407;28;20018;-57
2023/03/27 05:22:55;;;;;;;12.45;3.38;;;3.80;99.90;;;;;;5012415;28;20516;-55
2023/03/27 05:25:21;;;;;;;12.27;2.55;;;3.80;99.90;;;;;;5012151;28;20022;-51
2023/03/27 05:27:48;;;;;;;6.57;1.75;;;3.80;99.90;;;;;;5012328;28;20049;-54
2023/03/27 05:30:16;;;;;;;12.57;2.65;;;3.70;99.90;;;;;;5012235;28;20026;-56
2023/03/27 05:32:50;;;;;;;8.35;1.75;;;3.80;99.90;;;;;;5012041;28;20029;-53
2023/03/27 05:35:18;;;;;;;8.88;2.35;;;3.90;99.90;;;;;;4994046;28;20102;-53
2023/03/27 05:37:52;;;;;;;11.57;2.75;;;4.00;99.90;;;;;;5012042;28;20379;-54
2023/03/27 05:40:21;;;;;;;10.90;1.80;;;4.00;99.90;;;;;;5012042;28;20041;-55
2023/03/27 05:42:47;;;;;;;8.20;2.55;;;4.30;99.90;;;;;;5012088;28;20029;-56
2023/03/27 05:45:13;;;;;;;13.82;2.35;;;4.60;99.90;;;;;;5012080;28;20469;-56
2023/03/27 05:47:50;;;;;;;14.23;2.17;;;5.00;99.90;;;;;;5012115;28;20040;-57
2023/03/27 05:50:18;;;;;;;7.53;1.83;;;5.40;99.90;;;;;;5012090;28;20133;-56
2023/03/27 05:52:44;;;;;;;7.32;1.80;;;5.80;99.90;;;;;;5011788;28;20030;-57
2023/03/27 05:55:10;;;;;;;8.82;1.65;;;6.30;99.90;;;;;;5011987;28;20030;-55
2023/03/27 05:57:38;;;;;;;10.05;2.13;;;6.80;99.90;;;;;;5011738;28;20100;-54
2023/03/27 06:00:15;;;;;;;6.35;1.95;;;7.30;99.90;;;;;;5011583;28;20097;-59
2023/03/27 06:02:44;;;;;;;6.90;2.13;;;7.00;99.90;;;;;;5011697;28;20026;-57
2023/03/27 06:05:14;;;;;;;16.98;3.00;;;7.70;99.90;;;;;;5011907;28;20568;-57
2023/03/27 06:07:42;;;;;;;6.15;2.55;;;7.40;99.90;;;;;;5011541;28;20022;-55
2023/03/27 06:10:09;;;;;;;8.05;1.55;;;7.20;99.90;;;;;;5011864;28;20032;-57
2023/03/27 06:12:35;;;;;;;10.07;1.70;;;7.30;99.90;;;;;;4993851;28;20030;-56
2023/03/27 06:15:03;;;;;;;8.10;1.83;;;7.50;99.90;;;;;;5011673;28;20112;-56
2023/03/27 06:17:29;;;;;;;13.23;2.38;;;7.50;99.90;;;;;;5011614;28;20021;-55
2023/03/27 06:19:55;;;;;;;9.02;2.83;;;7.70;99.90;;;;;;4994065;28;20032;-56
2023/03/27 06:22:21;;;;;;;7.38;1.67;;;7.90;99.90;;;;;;5011489;28;20080;-54
2023/03/27 06:24:47;;;;;;;3.60;2.00;;;8.20;99.90;;;;;;5011568;28;20018;-53
2023/03/27 06:27:12;;;;;;;8.95;1.73;;;8.70;99.90;;;;;;5011242;28;20490;-56
2023/03/27 06:29:39;;;;;;;9.82;3.40;;;9.30;98.70;;;;;;5011911;28;20026;-55
2023/03/27 06:32:05;;;;;;;8.93;1.80;;;9.70;98.50;;;;;;5011773;28;20484;-56
2023/03/27 06:34:30;;;;;;;7.93;3.25;;;10.40;97.40;;;;;;4994193;28;20113;-53
2023/03/27 06:36:58;;;;;;;8.93;1.95;;;11.30;97.10;;;;;;5011613;28;20026;-53
2023/03/27 06:39:26;;;;;;;6.65;1.60;;;12.20;95.60;;;;;;5011736;28;20015;-53
2023/03/27 06:41:51;;;;;;;10.65;2.10;;;12.40;93.60;;;;;;5011604;28;20033;-55
2023/03/27 06:44:17;;;;;;;7.68;1.50;;;13.30;91.90;;;;;;5011591;28;20018;-55
2023/03/27 06:46:42;;;;;;;8.65;2.15;;;13.60;92.20;;;;;;5011418;28;20105;-55
2023/03/27 06:49:08;;;;;;;9.27;1.95;;;14.70;98.40;;;;;;5006802;28;20363;-56
2023/03/27 06:51:33;;;;;;;6.85;1.85;;;14.80;92.80;;;;;;5011106;28;20034;-54
2023/03/27 06:53:59;;;;;;;6.53;2.05;;;14.80;90.00;;;;;;5011211;28;20134;-56
2023/03/27 06:56:24;;;;;;;4.38;1.88;;;15.30;86.00;;;;;;5011336;28;20482;-51
2023/03/27 06:58:50;;;;;;;8.35;2.03;;;15.70;83.80;;;;;;4993101;28;20045;-53
2023/03/27 07:01:16;;;;;;;7.60;1.55;;;15.80;86.60;;;;;;5010592;28;20041;-54
2023/03/27 07:03:41;;;;;;;6.45;2.22;;;16.00;82.60;;;;;;5010284;28;20454;-58
2023/03/27 07:06:07;;;;;;;4.93;1.67;;;16.10;81.20;;;;;;5011140;28;20036;-56
2023/03/27 07:08:32;;;;;;;7.10;2.65;;;16.60;80.50;;;;;;5011417;28;20430;-58
2023/03/27 07:10:59;;;;;;;10.20;2.42;;;16.80;78.50;;;;;;5010687;28;20551;-55
2023/03/27 07:13:25;;;;;;;9.02;2.60;;;16.00;79.90;;;;;;5004364;28;20516;-57
2023/03/27 07:15:50;;;;;;;12.68;2.25;;;15.50;82.20;;;;;;5013681;28;20030;-50
2023/03/27 07:18:16;;;;;;;10.95;2.55;;;15.10;80.60;;;;;;5014324;28;20017;-56
2023/03/27 07:20:43;;;;;;;6.63;2.33;;;15.30;80.70;;;;;;5014573;28;20034;-55
2023/03/27 07:23:10;;;;;;;5.05;2.03;;;15.00;80.00;;;;;;5014350;28;20124;-56
2023/03/27 07:25:38;;;;;;;8.10;2.35;;;15.50;81.50;;;;;;5014717;28;20036;-54
2023/03/27 07:28:06;;;;;;;7.75;2.75;;;16.50;78.80;;;;;;5014680;28;20030;-56
2023/03/27 07:30:32;;;;;;;9.55;2.70;;;16.60;78.10;;;;;;5013951;28;20401;-54
2023/03/27 07:32:58;;;;;;;9.55;2.22;;;16.70;79.70;;;;;;5013149;28;20497;-57
2023/03/27 07:35:24;;;;;;;11.95;2.75;;;17.00;76.80;;;;;;5013575;28;20096;-58
2023/03/27 07:37:53;;;;;;;8.48;2.55;;;16.80;76.30;;;;;;5014473;28;20028;-55
2023/03/27 07:40:22;;;;;;;10.27;2.70;;;17.00;77.00;;;;;;5013586;28;20080;-51
2023/03/27 07:42:48;;;;;;;11.48;2.40;;;17.50;74.80;;;;;;4994786;28;20050;-52
2023/03/27 07:45:16;;;;;;;10.38;2.42;;;18.10;73.60;;;;;;4994548;28;20030;-55
2023/03/27 07:47:43;;;;;;;9.85;2.78;;;18.80;71.10;;;;;;4994469;28;20026;-52
2023/03/27 07:50:10;;;;;;;5.35;1.65;;;18.70;69.30;;;;;;4995031;28;20014;-52
2023/03/27 07:52:39;;;;;;;8.52;2.20;;;19.10;68.90;;;;;;4995019;28;20117;-55
2023/03/27 07:55:06;;;;;;;9.10;2.40;;;19.20;67.80;;;;;;4996390;28;20072;-56
2023/03/27 07:57:36;;;;;;;10.00;2.65;;;18.90;65.90;;;;;;5014154;28;20045;-58
2023/03/27 08:00:02;;;;;;;6.70;2.10;;;18.00;67.20;;;;;;5013742;28;20049;-56
2023/03/27 08:02:29;;;;;;;7.80;1.88;;;18.60;67.70;;;;;;5013725;28;20105;-56
2023/03/27 08:04:54;;;;;;;13.07;2.53;;;18.50;67.80;;;;;;5013850;28;20022;-57
2023/03/27 08:07:21;;;;;;;4.80;1.95;;;18.10;67.50;;;;;;4994173;28;20557;-56
2023/03/27 08:09:47;;;;;;;10.10;2.40;;;18.30;66.30;;;;;;4994372;28;20073;-52
2023/03/27 08:12:14;;;;;;;8.88;2.13;;;17.60;67.70;;;;;;4999710;28;20394;-53
2023/03/27 08:14:40;;;;;;;7.68;2.50;;;16.50;67.40;;;;;;5012753;28;20064;-53
2023/03/27 08:17:05;;;;;;;4.03;1.70;;;15.10;69.20;;;;;;5013614;28;20021;-51
2023/03/27 08:19:32;;;;;;;5.95;2.10;;;13.90;73.80;;;;;;5013636;28;20037;-53
2023/03/27 08:21:57;;;;;;;10.65;2.55;;;13.50;75.40;;;;;;5013329;28;20040;-56
2023/03/27 08:24:23;;;;;;;9.25;2.30;;;13.40;77.60;;;;;;4995625;28;20022;-55
2023/03/27 08:26:49;;;;;;;6.82;1.75;;;12.80;78.60;;;;;;5013626;28;20036;-54
2023/03/27 08:29:15;;;;;;;10.75;3.00;;;12.00;81.80;;;;;;5013710;28;20102;-56
2023/03/27 08:31:42;;;;;;;5.80;2.15;;;11.30;84.00;;;;;;5013530;28;20036;-56
2023/03/27 08:34:08;;;;;;;6.72;2.10;;;11.00;87.40;;;;;;4995797;28;20516;-54
2023/03/27 08:36:33;;;;;;;7.47;1.98;;;10.60;90.50;;;;;;5013514;28;20022;-57
2023/03/27 08:39:01;;;;;;;11.18;2.15;;;10.30;91.00;;;;;;5013220;28;20476;-53
2023/03/27 08:41:37;;;;;;;5.50;1.40;;;10.00;91.40;;;;;;5013159;28;20041;-55
2023/03/27 08:44:08;;;;;;;4.85;1.60;;;9.70;91.60;;;;;;5013208;28;20029;-55
2023/03/27 08:46:42;;;;;;;6.10;1.45;;;9.90;93.00;;;;;;5013226;28;20026;-53
2023/03/27 08:49:19;;;;;;;8.13;2.05;;;9.60;94.60;;;;;;5013132;28;20439;-55
2023/03/27 08:51:57;;;;;;;10.02;2.42;;;9.60;94.70;;;;;;5013083;28;20034;-54
2023/03/27 08:54:34;;;;;;;8.98;2.05;;;9.20;92.80;;;;;;5013244;28;20018;-55
2023/03/27 08:57:00;;;;;;;6.78;1.60;;;9.40;93.10;;;;;;4993454;28;20022;-54
2023/03/27 08:59:28;;;;;;;6.40;1.83;;;10.30;92.30;;;;;;5012909;28;20037;-50
2023/03/27 09:02:14;;;;;;;8.35;2.90;;;10.70;90.80;;;;;;5013200;28;20497;-55
2023/03/27 09:04:58;;;;;;;12.23;1.60;;;10.80;91.00;;;;;;4993385;28;20113;-56
2023/03/27 09:07:42;;;;;;;7.05;1.92;;;11.90;90.00;;;;;;4993274;28;20034;-55
2023/03/27 09:10:36;;;;;;;9.02;2.65;;;12.50;87.30;;;;;;5007515;28;20424;-57
2023/03/27 09:13:17;;;;;;;8.20;1.88;;;12.80;81.90;;;;;;5012722;28;20022;-56
2023/03/27 09:16:09;;;;;;;7.60;1.60;;;13.50;84.70;;;;;;5012760;28;20026;-58
2023/03/27 09:18:58;;;;;;;9.73;2.03;;;13.70;81.20;;;;;;5011947;28;20049;-56
2023/03/27 09:21:59;;;;;;;6.18;1.88;;;11.90;83.60;;;;;;5012193;28;20080;-57
2023/03/27 09:24:30;;;;;;;6.75;1.90;;;11.80;85.90;;;;;;4999584;28;20037;-57
2023/03/27 09:26:56;;;;;;;3.80;1.15;;;11.10;90.10;;;;;;5012243;28;20079;-52
2023/03/27 09:29:25;;;;;;;7.15;1.67;;;11.00;90.90;;;;;;5012369;28;20393;-53
2023/03/27 09:31:53;;;;;;;4.63;1.33;;;11.00;90.70;;;;;;5012177;28;20162;-59
2023/03/27 09:34:25;;;;;;;7.95;1.98;;;10.40;90.50;;;;;;5011687;28;20029;-57
2023/03/27 09:36:51;;;;;;;10.95;2.17;;;10.50;90.70;;;;;;5003839;28;20030;-53
2023/03/27 09:39:21;;;;;;;10.48;1.52;;;12.80;91.50;;;;;;5012528;28;20026;-57
2023/03/27 09:41:51;;;;;;;7.00;1.70;;;11.60;89.50;;;;;;5013049;28;20026;-47
2023/03/27 09:44:26;;;;;;;6.07;1.63;;;11.30;90.50;;;;;;5012169;28;20056;-49
2023/03/27 09:47:03;;;;;;;6.55;2.53;;;11.60;91.90;;;;;;5011906;28;20088;-54
2023/03/27 09:49:30;;;;;;;14.10;2.17;;;11.70;91.10;;;;;;5012180;28;20042;-59
2023/03/27 09:51:58;;;;;;;13.68;2.85;;;11.50;89.20;;;;;;5011871;28;20450;-58
2023/03/27 09:54:27;;;;;;;5.70;1.38;;;12.00;90.30;;;;;;5011732;28;20506;-57
2023/03/27 09:56:58;;;;;;;5.65;1.55;;;12.40;90.10;;;;;;5010325;28;20430;-53
2023/03/27 09:59:28;;;;;;;4.70;1.90;;;12.50;88.90;;;;;;5010817;28;20060;-57
2023/03/27 10:01:59;;;;;;;4.30;1.27;;;12.40;89.30;;;;;;5011293;28;20056;-56
2023/03/27 10:04:27;;;;;;;6.35;1.70;;;12.00;89.90;;;;;;5011740;28;20044;-52
2023/03/27 10:07:04;;;;;;;7.07;3.15;;;11.20;91.60;;;;;;4994253;28;20036;-53
2023/03/27 10:09:33;;;;;;;5.80;1.83;;;11.00;91.30;;;;;;5011527;28;20120;-50
2023/03/27 10:12:05;;;;;;;8.63;1.40;;;10.70;91.20;;;;;;5011219;28;20060;-54
2023/03/27 10:14:34;;;;;;;3.63;1.55;;;10.40;92.00;;;;;;5011491;28;20022;-53
2023/03/27 10:17:01;;;;;;;6.35;2.03;;;10.30;93.20;;;;;;4994098;28;20424;-56
2023/03/27 10:19:29;;;;;;;6.57;1.50;;;9.90;94.20;;;;;;5011655;28;20018;-53
2023/03/27 10:21:56;;;;;;;8.13;2.55;;;9.30;97.70;;;;;;4993633;28;20034;-52
2023/03/27 10:24:45;;;;;;;7.72;1.85;;;8.70;99.90;;;;;;4993910;28;20022;-51
2023/03/27 10:27:22;;;;;;;10.10;1.77;;;7.80;99.90;;;;;;5011492;28;20053;-53
2023/03/27 10:29:47;;;;;;;3.65;1.73;;;7.60;99.90;;;;;;5011564;28;20033;-51
2023/03/27 10:32:14;;;;;;;6.20;2.00;;;7.20;99.90;;;;;;5011053;28;20026;-53
2023/03/27 10:34:54;;;;;;;9.70;2.22;;;6.90;99.90;;;;;;5010215;28;20170;-56
2023/03/27 10:37:29;;;;;;;7.65;1.65;;;6.80;99.90;;;;;;5010685;28;20022;-49
2023/03/27 10:39:58;;;;;;;3.22;1.45;;;6.40;99.90;;;;;;4993960;28;20386;-55
2023/03/27 10:42:30;;;;;;;3.60;1.77;;;6.40;99.90;;;;;;5011261;28;20022;-47
2023/03/27 10:44:57;;;;;;;12.52;4.15;;;6.60;99.90;;;;;;5012193;28;20087;-50
2023/03/27 10:47:26;;;;;;;27.23;12.73;;;6.70;99.90;;;;;;5012724;28;20034;-53
2023/03/27 10:50:22;;;;;;;6.22;3.17;;;6.90;99.90;;;;;;5015330;28;20033;-57
2023/03/27 10:52:59;;;;;;;3.63;2.05;;;7.20;99.90;;;;;;5015381;28;20104;-52
2023/03/27 10:55:34;;;;;;;4.35;1.15;;;;;;;;;;5015178;28;20172;-53
2023/03/27 10:58:11;;;;;;;3.53;1.10;;;7.60;99.90;;;;;;5013301;28;20424;-54
2023/03/27 11:00:44;;;;;;;4.43;1.60;;;7.70;99.90;;;;;;5014775;28;20038;-53
2023/03/27 11:03:30;;;;;;;4.05;1.42;;;8.00;99.90;;;;;;5015038;28;20030;-56
2023/03/27 11:05:58;;;;;;;2.58;1.10;;;8.10;99.90;;;;;;5015175;28;20040;-53
2023/03/27 11:08:50;;;;;;;2.25;1.20;;;8.10;99.90;;;;;;5014785;28;20037;-49
2023/03/27 11:11:22;;;;;;;2.60;1.73;;;8.10;99.90;;;;;;4997021;28;20030;-52
2023/03/27 11:13:47;;;;;;;4.07;1.55;;;8.20;99.90;;;;;;5014810;28;20533;-55
2023/03/27 11:16:26;;;;;;;2.70;1.45;;;8.30;99.90;;;;;;4997379;28;20213;-53
2023/03/27 11:19:09;;;;;;;5.55;1.33;;;8.30;99.90;;;;;;5014574;28;20105;-49
2023/03/27 11:21:43;;;;;;;1.85;1.35;;;8.20;99.90;;;;;;5014207;28;20061;-55
2023/03/27 11:24:16;;;;;;;2.03;1.25;;;8.20;99.90;;;;;;5014341;28;20117;-54
2023/03/27 11:27:03;;;;;;;4.03;1.27;;;8.30;99.90;;;;;;5013288;28;20513;-50
2023/03/27 11:29:39;;;;;;;2.97;1.42;;;8.40;99.90;;;;;;4999248;28;20036;-52
2023/03/27 11:32:17;;;;;;;2.25;1.40;;;8.50;99.90;;;;;;5014405;28;20030;-49
2023/03/27 11:35:01;;;;;;;5.53;1.38;;;8.50;99.90;;;;;;5014472;28;20037;-51
2023/03/27 11:37:41;;;;;;;3.13;1.30;;;8.70;99.90;;;;;;5014371;28;20032;-50
2023/03/27 11:40:19;;;;;;;3.78;1.52;;;8.80;99.90;;;;;;5014037;28;20022;-49
2023/03/27 11:42:45;;;;;;;3.83;1.40;;;8.90;99.90;;;;;;5014416;28;20124;-47
2023/03/27 11:45:19;;;;;;;2.42;1.85;;;9.10;99.90;;;;;;5014475;28;20033;-51
2023/03/27 11:48:14;;;;;;;4.88;1.88;;;9.40;99.90;;;;;;5013852;28;20030;-48
2023/03/27 11:50:59;;;;;;;3.85;1.23;;;9.30;99.90;;;;;;5013991;28;20022;-49
2023/03/27 11:53:40;;;;;;;1.95;0.98;;;8.90;99.90;;;;;;4994384;28;20043;-52
2023/03/27 11:56:28;;;;;;;4.25;1.13;;;8.60;99.90;;;;;;4994469;28;20018;-55
2023/03/27 11:59:32;;;;;;;3.80;1.05;;;8.50;99.90;;;;;;4993891;28;20023;-54
2023/03/27 12:02:34;;;;;;;3.10;1.35;;;8.40;99.90;;;;;;5013413;28;20036;-53
2023/03/27 12:05:18;;;;;;;3.22;1.30;;;8.10;99.90;;;;;;5014140;28;20026;-49
2023/03/27 12:08:13;;;;;;;4.07;1.00;;;7.90;99.90;;;;;;5014093;28;20022;-49
2023/03/27 12:10:41;;;;;;;3.65;1.30;;;7.70;99.90;;;;;;5014358;28;20037;-53
2023/03/27 12:13:47;;;;;;;2.95;1.17;;;7.50;99.90;;;;;;5014190;28;20026;-52
2023/03/27 12:16:34;;;;;;;1.37;1.17;;;7.70;99.90;;;;;;5013538;28;20026;-54
2023/03/27 12:19:33;;;;;;;1.30;1.20;;;8.10;99.90;;;;;;5013479;28;20048;-50
2023/03/27 12:22:30;;;;;;;1.90;1.45;;;8.40;99.90;;;;;;5013291;28;20125;-48
2023/03/27 12:25:15;;;;;;;6.63;2.15;;;8.50;99.90;;;;;;5013633;28;20404;-50
2023/03/27 12:28:08;;;;;;;2.22;1.40;;;8.30;99.90;;;;;;5013811;28;20018;-47
2023/03/27 12:30:46;;;;;;;2.35;1.42;;;8.50;99.90;;;;;;5012980;28;20032;-53
2023/03/27 12:33:21;;;;;;;1.23;1.15;;;8.80;99.90;;;;;;5013237;28;20025;-53
2023/03/27 12:35:51;;;;;;;2.10;1.35;;;8.90;99.90;;;;;;5013231;28;20048;-51
2023/03/27 12:38:31;;;;;;;3.47;1.67;;;9.10;99.90;;;;;;5013162;28;20026;-49
2023/03/27 12:41:04;;;;;;;4.03;1.50;;;9.20;99.90;;;;;;5012907;28;20018;-49
2023/03/27 12:43:38;;;;;;;1.52;1.13;;;9.20;99.90;;;;;;5012813;28;20104;-48
2023/03/27 12:46:21;;;;;;;2.00;1.65;;;9.30;99.90;;;;;;5005399;28;20595;-49
2023/03/27 12:48:53;;;;;;;2.47;1.50;;;9.20;99.90;;;;;;4993504;28;20041;-50
2023/03/27 12:51:33;;;;;;;1.10;1.10;;;8.70;99.90;;;;;;5002110;28;20026;-48
2023/03/27 12:54:30;;;;;;;2.13;1.02;;;8.30;99.90;;;;;;5013049;28;20030;-49
2023/03/27 12:57:04;;;;;;;4.10;1.88;;;8.00;99.90;;;;;;5012083;28;20025;-47
2023/03/27 12:59:35;;;;;;;2.90;1.13;;;7.70;99.90;;;;;;5012518;28;20026;-50
2023/03/27 13:02:03;;;;;;;1.73;1.10;;;7.50;99.90;;;;;;5012381;28;20022;-51
2023/03/27 13:05:01;;;;;;;1.20;1.10;;;7.20;99.90;;;;;;5012808;28;20490;-50
2023/03/27 13:07:35;;;;;;;1.73;1.20;;;7.20;99.90;;;;;;5005703;28;20079;-52
2023/03/27 13:10:14;;;;;;;1.35;1.08;;;7.30;99.90;;;;;;5011997;28;20026;-52
2023/03/27 13:13:06;;;;;;;3.05;2.17;;;7.40;99.90;;;;;;5012459;28;20030;-52
2023/03/27 13:16:17;;;;;;;2.28;1.73;;;7.60;99.90;;;;;;5012667;28;20037;-51
2023/03/27 13:18:58;;;;;;;1.02;0.88;;;7.90;99.90;;;;;;4999698;28;20041;-51
2023/03/27 13:21:44;;;;;;;1.27;1.00;;;8.10;99.90;;;;;;5012585;28;20502;-49